^^
Your Local Weather - Clay, NY Station Historical Data
 
Daily Summary for December 14, 2018 Units:  English    Metric   Both
« Previous Day
Next Day »
Daily Weekly Monthly Yearly Custom
  Current: High: Low: Average:
Temperature: 42.2 °F 46 °F 25.5 °F 37.5 °F
Dew Point: 36.2 °F 38.5 °F 23.2 °F 32.7 °F
Humidity: 79% 93% 72% 83%
Wind Speed: 0mph 4mph 0mph 0.9mph
Wind Gust: 0mph 7mph - -
WindCalm - - ESE
Pressure: 30.15 in 30.36 in 30.15 in -
Precipitation: 0.01 in      
Historical Graphs
 
 
Tabular Data for December 14, 2018
Time Temperature Dew Point Pressure Wind Wind Speed Wind Gust Humidity Rainfall Rate (Hourly) solar
00:04 29 °F 25.3 °F 30.36 in ENE 2 mph 3 mph 86% 0 in 0.00 W/m2
00:08 29.1 °F 25.4 °F 30.36 in East 2 mph 3 mph 86% 0 in 0.00 W/m2
00:14 29.3 °F 25.6 °F 30.36 in NE 3 mph 4 mph 86% 0 in 0.00 W/m2
00:18 29.4 °F 25.7 °F 30.36 in ENE 2 mph 4 mph 86% 0 in 0.00 W/m2
00:24 29.5 °F 26.1 °F 30.36 in East 2 mph 3 mph 87% 0 in 0.00 W/m2
00:28 29.4 °F 26 °F 30.36 in East 2 mph 3 mph 87% 0 in 0.00 W/m2
00:34 29.6 °F 25.9 °F 30.36 in ENE 1 mph 2 mph 86% 0 in 0.00 W/m2
00:38 29.6 °F 25.9 °F 30.36 in ENE 1 mph 2 mph 86% 0 in 0.00 W/m2
00:44 29.7 °F 26.3 °F 30.36 in ENE 2 mph 2 mph 87% 0 in 0.00 W/m2
00:48 29.6 °F 26.2 °F 30.36 in East 1 mph 3 mph 87% 0 in 0.00 W/m2
00:54 29.7 °F 26.3 °F 30.36 in ENE 2 mph 4 mph 87% 0 in 0.00 W/m2
00:58 29.8 °F 26.4 °F 30.36 in ENE 3 mph 7 mph 87% 0 in 0.00 W/m2
01:04 29.9 °F 26.5 °F 30.36 in NE 3 mph 3 mph 87% 0 in 0.00 W/m2
01:08 29.9 °F 26.5 °F 30.36 in ENE 2 mph 4 mph 87% 0 in 0.00 W/m2
01:14 30.2 °F 26.5 °F 30.36 in ENE 3 mph 5 mph 86% 0 in 0.00 W/m2
01:18 30.3 °F 26.6 °F 30.36 in ENE 3 mph 5 mph 86% 0 in 0.00 W/m2
01:24 30.2 °F 26.5 °F 30.35 in East 3 mph 4 mph 86% 0 in 0.00 W/m2
01:28 29.9 °F 26.2 °F 30.35 in ENE 3 mph 4 mph 86% 0 in 0.00 W/m2
01:34 30.1 °F 26.7 °F 30.35 in ENE 3 mph 3 mph 87% 0 in 0.00 W/m2
01:38 29.8 °F 26.4 °F 30.35 in East 3 mph 3 mph 87% 0 in 0.00 W/m2
01:44 29.3 °F 25.9 °F 30.35 in ENE 2 mph 3 mph 87% 0 in 0.00 W/m2
01:48 29.1 °F 26 °F 30.35 in ENE 2 mph 3 mph 88% 0 in 0.00 W/m2
01:54 29 °F 25.9 °F 30.35 in ENE 2 mph 3 mph 88% 0 in 0.00 W/m2
01:58 29 °F 25.9 °F 30.35 in East 2 mph 3 mph 88% 0 in 0.00 W/m2
02:04 29 °F 25.9 °F 30.35 in East 2 mph 2 mph 88% 0 in 0.00 W/m2
02:08 29 °F 25.9 °F 30.35 in ENE 2 mph 2 mph 88% 0 in 0.00 W/m2
02:14 28.9 °F 25.8 °F 30.35 in East 2 mph 2 mph 88% 0 in 0.00 W/m2
02:18 28.9 °F 25.8 °F 30.35 in ENE 1 mph 2 mph 88% 0 in 0.00 W/m2
02:24 28.4 °F 25.3 °F 30.35 in ENE 1 mph 2 mph 88% 0 in 0.00 W/m2
02:28 28.1 °F 25 °F 30.35 in ENE 1 mph 2 mph 88% 0 in 0.00 W/m2
02:34 27.6 °F 24.8 °F 30.35 in ENE 1 mph 1 mph 89% 0 in 0.00 W/m2
02:38 27.3 °F 24.5 °F 30.34 in ENE 1 mph 1 mph 89% 0 in 0.00 W/m2
02:44 27 °F 24.2 °F 30.34 in ENE 1 mph 2 mph 89% 0 in 0.00 W/m2
02:48 26.8 °F 24 °F 30.34 in ENE 1 mph 2 mph 89% 0 in 0.00 W/m2
02:54 26.7 °F 24.2 °F 30.34 in Calm   1 mph 90% 0 in 0.00 W/m2
02:58 26.4 °F 23.9 °F 30.34 in Calm   1 mph 90% 0 in 0.00 W/m2
03:04 26.3 °F 23.8 °F 30.34 in Calm   2 mph 90% 0 in 0.00 W/m2
03:08 26.3 °F 24 °F 30.33 in ENE 1 mph 2 mph 91% 0 in 0.00 W/m2
03:14 26.5 °F 24.2 °F 30.33 in ENE 1 mph 1 mph 91% 0 in 0.00 W/m2
03:18 26.7 °F 24.4 °F 30.33 in ENE 1 mph 1 mph 91% 0 in 0.00 W/m2
03:24 26.5 °F 24.2 °F 30.33 in ENE 1 mph 2 mph 91% 0 in 0.00 W/m2
03:28 26.2 °F 23.9 °F 30.33 in ENE 1 mph 2 mph 91% 0 in 0.00 W/m2
03:34 25.9 °F 23.6 °F 30.33 in Calm   3 mph 91% 0 in 0.00 W/m2
03:38 25.9 °F 23.6 °F 30.33 in Calm   3 mph 91% 0 in 0.00 W/m2
03:44 25.7 °F 23.4 °F 30.33 in Calm     91% 0 in 0.00 W/m2
03:48 25.5 °F 23.2 °F 30.33 in Calm     91% 0 in 0.00 W/m2
03:54 25.5 °F 23.5 °F 30.33 in Calm     92% 0 in 0.00 W/m2
03:58 25.6 °F 23.6 °F 30.33 in Calm     92% 0 in 0.00 W/m2
04:04 25.6 °F 23.6 °F 30.33 in Calm   2 mph 92% 0 in 0.00 W/m2
04:08 25.7 °F 23.7 °F 30.33 in Calm   3 mph 92% 0 in 0.00 W/m2
04:14 25.6 °F 23.6 °F 30.33 in Calm   2 mph 92% 0 in 0.00 W/m2
04:16 25.9 °F 23.9 °F 30.33 in Calm   2 mph 92% 0 in 0.00 W/m2
04:24 26.3 °F 24.6 °F 30.32 in ENE 1 mph 2 mph 93% 0 in 0.00 W/m2
04:28 27 °F 25.2 °F 30.32 in ENE 1 mph 2 mph 93% 0 in 0.00 W/m2
04:34 27.8 °F 26 °F 30.32 in ENE 1 mph 1 mph 93% 0 in 0.00 W/m2
04:38 28.2 °F 26.4 °F 30.31 in ENE 1 mph 2 mph 93% 0 in 0.00 W/m2
04:44 28.7 °F 26.9 °F 30.31 in ENE 1 mph 2 mph 93% 0 in 0.00 W/m2
04:48 29 °F 27.2 °F 30.31 in NE 1 mph 2 mph 93% 0 in 0.00 W/m2
04:54 29.6 °F 27.8 °F 30.31 in NE 2 mph 4 mph 93% 0 in 0.00 W/m2
04:58 29.8 °F 27.8 °F 30.31 in NE 2 mph 4 mph 92% 0 in 0.00 W/m2
05:04 29.9 °F 27.9 °F 30.31 in ENE 1 mph 2 mph 92% 0 in 0.00 W/m2
05:08 30.1 °F 28.1 °F 30.31 in Calm   2 mph 92% 0 in 0.00 W/m2
05:14 30.3 °F 28.3 °F 30.31 in ENE 1 mph 4 mph 92% 0 in 0.00 W/m2
05:18 30.4 °F 28.4 °F 30.31 in ENE 1 mph 4 mph 92% 0 in 0.00 W/m2
05:24 30.4 °F 28.1 °F 30.31 in Calm   4 mph 91% 0 in 0.00 W/m2
05:28 30.9 °F 28.9 °F 30.31 in ENE 1 mph 4 mph 92% 0 in 0.00 W/m2
05:34 30.6 °F 28.3 °F 30.31 in ENE 1 mph 1 mph 91% 0 in 0.00 W/m2
05:38 30.6 °F 28.3 °F 30.31 in ENE 1 mph 1 mph 91% 0 in 0.00 W/m2
05:44 30.7 °F 28.4 °F 30.31 in ENE 1 mph 2 mph 91% 0 in 0.00 W/m2
05:48 30.8 °F 28.5 °F 30.30 in ENE 1 mph 2 mph 91% 0 in 0.00 W/m2
05:54 30.9 °F 28.6 °F 30.31 in ENE 1 mph 2 mph 91% 0 in 0.00 W/m2
05:58 31 °F 28.7 °F 30.31 in ENE 1 mph 2 mph 91% 0 in 0.00 W/m2
06:04 31 °F 28.7 °F 30.31 in ENE 1 mph 1 mph 91% 0 in 0.00 W/m2
06:08 31 °F 28.7 °F 30.31 in ENE 1 mph 1 mph 91% 0 in 0.00 W/m2
06:14 31.1 °F 28.8 °F 30.31 in ENE 1 mph 2 mph 91% 0 in 0.00 W/m2
06:18 31.3 °F 29 °F 30.31 in ENE 1 mph 3 mph 91% 0 in 0.00 W/m2
06:24 31.4 °F 29.1 °F 30.31 in ENE 1 mph 1 mph 91% 0 in 0.00 W/m2
06:28 31.3 °F 29 °F 30.31 in ENE 1 mph 1 mph 91% 0 in 0.00 W/m2
06:34 31.3 °F 29 °F 30.31 in ENE 1 mph 2 mph 91% 0 in 0.00 W/m2
06:38 31.4 °F 29.1 °F 30.31 in NNE 1 mph 2 mph 91% 0 in 0.00 W/m2
06:44 31.4 °F 29.1 °F 30.31 in NNE 1 mph 2 mph 91% 0 in 0.00 W/m2
06:48 31.6 °F 29.3 °F 30.31 in NNE 1 mph 2 mph 91% 0 in 0.00 W/m2
06:54 31.9 °F 29.6 °F 30.31 in ENE 1 mph 4 mph 91% 0 in 0.00 W/m2
06:58 32.1 °F 29.8 °F 30.31 in ENE 1 mph 4 mph 91% 0 in 0.00 W/m2
07:02 32.3 °F 30 °F 30.31 in ENE 1 mph 1 mph 91% 0 in 0.00 W/m2
07:08 32.7 °F 30.4 °F 30.31 in ESE 1 mph 1 mph 91% 0 in 0.00 W/m2
07:14 33 °F 30.4 °F 30.32 in East 1 mph 1 mph 90% 0 in 0.00 W/m2
07:18 32.8 °F 30.2 °F 30.32 in Calm   1 mph 90% 0 in 0.00 W/m2
07:24 32.8 °F 30.2 °F 30.32 in Calm     90% 0 in 0.00 W/m2
07:28 32.8 °F 30.2 °F 30.32 in East 1 mph 2 mph 90% 0 in 0.00 W/m2
07:34 32.7 °F 30.1 °F 30.32 in East 1 mph 1 mph 90% 0 in 0.00 W/m2
07:38 32.7 °F 30.1 °F 30.32 in East 1 mph 1 mph 90% 0 in 0.00 W/m2
07:44 32.9 °F 30.6 °F 30.32 in East 1 mph 1 mph 91% 0 in 5.00 W/m2
07:48 33.2 °F 30.6 °F 30.31 in East 1 mph 3 mph 90% 0 in 7.00 W/m2
07:54 33.1 °F 30.5 °F 30.31 in East 2 mph 3 mph 90% 0 in 12.00 W/m2
07:58 33.4 °F 30.8 °F 30.31 in East 2 mph 3 mph 90% 0 in 18.00 W/m2
08:04 33.8 °F 30.9 °F 30.30 in East 2 mph 6 mph 89% 0 in 21.00 W/m2
08:08 34.1 °F 31.2 °F 30.30 in East 2 mph 6 mph 89% 0 in 19.00 W/m2
08:14 34.3 °F 31.4 °F 30.31 in East 1 mph 3 mph 89% 0 in 18.00 W/m2
08:18 34.6 °F 31.4 °F 30.31 in ESE 1 mph 3 mph 88% 0 in 19.00 W/m2
08:24 34.8 °F 31.6 °F 30.31 in ENE 1 mph 1 mph 88% 0 in 25.00 W/m2
08:28 34.7 °F 31.5 °F 30.31 in ENE 1 mph 1 mph 88% 0 in 26.00 W/m2
08:34 34.8 °F 31.6 °F 30.31 in East 1 mph 3 mph 88% 0 in 30.00 W/m2
08:38 35.1 °F 31.9 °F 30.31 in East 2 mph 3 mph 88% 0 in 32.00 W/m2
08:44 35.3 °F 31.8 °F 30.31 in NE 1 mph 4 mph 87% 0 in 33.00 W/m2
08:48 35.5 °F 32 °F 30.31 in NE 1 mph 4 mph 87% 0 in 33.00 W/m2
08:54 35.5 °F 32.3 °F 30.31 in ENE 1 mph 2 mph 88% 0 in 23.00 W/m2
08:58 35.4 °F 31.9 °F 30.31 in ENE 1 mph 2 mph 87% 0 in 25.00 W/m2
09:04 35.2 °F 32 °F 30.31 in ENE 1 mph 1 mph 88% 0 in 26.00 W/m2
09:08 35.2 °F 31.7 °F 30.31 in ENE 1 mph 1 mph 87% 0 in 32.00 W/m2
09:14 35.4 °F 31.9 °F 30.32 in ENE 1 mph 3 mph 87% 0 in 40.00 W/m2
09:18 35.5 °F 32 °F 30.32 in ENE 1 mph 3 mph 87% 0 in 51.00 W/m2
09:24 35.6 °F 32.1 °F 30.32 in Calm   1 mph 87% 0 in 49.00 W/m2
09:28 36 °F 32.5 °F 30.32 in Calm   2 mph 87% 0 in 67.00 W/m2
09:34 36.6 °F 33.1 °F 30.32 in SE 1 mph 4 mph 87% 0 in 74.00 W/m2
09:38 38.2 °F 35 °F 30.31 in SSE 1 mph 4 mph 88% 0 in 70.00 W/m2
09:44 39.2 °F 35.4 °F 30.31 in SE 2 mph 3 mph 86% 0 in 63.00 W/m2
09:48 40.2 °F 36.1 °F 30.30 in South 2 mph 5 mph 85% 0 in 76.00 W/m2
09:54 40.9 °F 36.1 °F 30.30 in SSE 4 mph 4 mph 83% 0 in 86.00 W/m2
09:58 41 °F 36.2 °F 30.29 in SSE 3 mph 4 mph 83% 0 in 84.00 W/m2
10:04 41.2 °F 36.4 °F 30.29 in SSE 3 mph 5 mph 83% 0 in 86.00 W/m2
10:08 41.3 °F 36.2 °F 30.29 in SE 3 mph 5 mph 82% 0 in 77.00 W/m2
10:14 41.2 °F 36.1 °F 30.29 in SE 2 mph 4 mph 82% 0 in 83.00 W/m2
10:18 41.4 °F 36.3 °F 30.29 in SE 2 mph 4 mph 82% 0 in 77.00 W/m2
10:24 41.5 °F 36.4 °F 30.29 in SE 2 mph 3 mph 82% 0 in 90.00 W/m2
10:28 41.6 °F 36.5 °F 30.29 in SE 2 mph 3 mph 82% 0 in 81.00 W/m2
10:34 41.8 °F 36.7 °F 30.29 in SE 2 mph 2 mph 82% 0 in 81.00 W/m2
10:38 41.8 °F 36.7 °F 30.29 in SE 2 mph 2 mph 82% 0 in 76.00 W/m2
10:44 41.5 °F 36.4 °F 30.29 in SE 1 mph 1 mph 82% 0 in 81.00 W/m2
10:48 41.6 °F 36.5 °F 30.28 in SE 1 mph 1 mph 82% 0 in 88.00 W/m2
10:54 41.8 °F 36.7 °F 30.28 in SE 1 mph 1 mph 82% 0 in 97.00 W/m2
10:58 42.2 °F 37.1 °F 30.27 in SSE 1 mph 4 mph 82% 0 in 105.00 W/m2
11:04 42.3 °F 36.9 °F 30.27 in SSE 1 mph 1 mph 81% 0 in 130.00 W/m2
11:08 42.4 °F 37 °F 30.27 in Calm   1 mph 81% 0 in 97.00 W/m2
11:14 42.8 °F 37.4 °F 30.26 in Calm     81% 0 in 132.00 W/m2
11:18 43 °F 37.3 °F 30.26 in Calm   3 mph 80% 0 in 148.00 W/m2
11:24 43.2 °F 37.4 °F 30.26 in SSE 1 mph 2 mph 80% 0 in 162.00 W/m2
11:28 43.5 °F 37.7 °F 30.26 in Calm   2 mph 80% 0 in 105.00 W/m2
11:34 43.7 °F 37.6 °F 30.25 in SSE 1 mph 2 mph 79% 0 in 142.00 W/m2
11:38 43.8 °F 37.7 °F 30.24 in SSE 1 mph 4 mph 79% 0 in 134.00 W/m2
11:44 43.9 °F 37.8 °F 30.24 in SSE 2 mph 3 mph 79% 0 in 123.00 W/m2
11:48 44.1 °F 38 °F 30.24 in SSE 1 mph 3 mph 79% 0 in 139.00 W/m2
11:54 44.1 °F 37.7 °F 30.24 in SSE 1 mph 3 mph 78% 0 in 128.00 W/m2
11:58 44.2 °F 37.8 °F 30.23 in SSE 1 mph 3 mph 78% 0 in 120.00 W/m2
12:04 44.2 °F 38.1 °F 30.23 in SSE 1 mph 3 mph 79% 0 in 69.00 W/m2
12:08 44.2 °F 37.8 °F 30.23 in SSE 1 mph 3 mph 78% 0 in 46.00 W/m2
12:14 44.1 °F 37.7 °F 30.23 in Calm   1 mph 78% 0 in 60.00 W/m2
12:18 44 °F 37.9 °F 30.23 in Calm   1 mph 79% 0 in 60.00 W/m2
12:24 43.7 °F 37.6 °F 30.22 in Calm     79% 0 in 81.00 W/m2
12:28 43.5 °F 37.4 °F 30.22 in Calm   1 mph 79% 0 in 100.00 W/m2
12:34 43.3 °F 37.5 °F 30.21 in Calm     80% 0 in 98.00 W/m2
12:38 43.4 °F 37.6 °F 30.22 in Calm   2 mph 80% 0 in 67.00 W/m2
12:44 43.5 °F 37.7 °F 30.21 in Calm     80% 0 in 62.00 W/m2
12:48 43.5 °F 37.7 °F 30.21 in Calm     80% 0 in 58.00 W/m2
12:54 43.7 °F 37.9 °F 30.21 in SSE 1 mph 2 mph 80% 0 in 62.00 W/m2
12:58 44 °F 38.2 °F 30.21 in SSE 1 mph 2 mph 80% 0 in 47.00 W/m2
13:04 44.2 °F 38.4 °F 30.21 in Calm   1 mph 80% 0 in 62.00 W/m2
13:08 44.4 °F 38.3 °F 30.20 in SSE 1 mph 3 mph 79% 0 in 83.00 W/m2
13:14 44.6 °F 38.5 °F 30.19 in SSE 1 mph 1 mph 79% 0 in 58.00 W/m2
13:18 44.6 °F 38.5 °F 30.19 in Calm   1 mph 79% 0 in 53.00 W/m2
13:24 44.6 °F 38.5 °F 30.19 in SSE 1 mph 3 mph 79% 0 in 53.00 W/m2
13:28 44.6 °F 38.2 °F 30.19 in SSE 2 mph 3 mph 78% 0 in 53.00 W/m2
13:34 44.8 °F 38.4 °F 30.18 in SE 1 mph 2 mph 78% 0 in 54.00 W/m2
13:38 44.6 °F 38.2 °F 30.19 in SE 1 mph 2 mph 78% 0 in 70.00 W/m2
13:44 44.3 °F 38.2 °F 30.19 in Calm     79% 0 in 53.00 W/m2
13:48 44.4 °F 38.3 °F 30.19 in Calm     79% 0 in 35.00 W/m2
13:54 44 °F 37.9 °F 30.19 in Calm     79% 0 in 35.00 W/m2
13:58 44 °F 37.9 °F 30.18 in Calm   2 mph 79% 0 in 35.00 W/m2
14:04 43.5 °F 37.7 °F 30.19 in WSW 1 mph 1 mph 80% 0 in 18.00 W/m2
14:08 43.8 °F 37.7 °F 30.19 in Calm   1 mph 79% 0 in 19.00 W/m2
14:14 43.4 °F 37.6 °F 30.19 in Calm     80% 0 in 30.00 W/m2
14:18 43.2 °F 37.4 °F 30.18 in Calm     80% 0 in 30.00 W/m2
14:24 43.5 °F 37.7 °F 30.18 in Calm   2 mph 80% 0 in 25.00 W/m2
14:28 43.8 °F 37.7 °F 30.18 in Calm   2 mph 79% 0 in 30.00 W/m2
14:34 43.5 °F 37.4 °F 30.18 in Calm     79% 0 in 30.00 W/m2
14:38 43.3 °F 37.5 °F 30.18 in Calm   1 mph 80% 0 in 25.00 W/m2
14:44 43.8 °F 37.7 °F 30.18 in Calm   4 mph 79% 0 in 18.00 W/m2
14:48 44 °F 37.9 °F 30.18 in Calm   4 mph 79% 0 in 30.00 W/m2
14:54 43.8 °F 38 °F 30.17 in Calm     80% 0 in 26.00 W/m2
14:58 44.2 °F 37.8 °F 30.17 in Calm   6 mph 78% 0 in 28.00 W/m2
15:02 45.3 °F 38.2 °F 30.17 in SSW 1 mph 2 mph 76% 0 in 25.00 W/m2
15:08 45.7 °F 38.2 °F 30.17 in SSW 2 mph 2 mph 75% 0 in 19.00 W/m2
15:14 45.6 °F 38.5 °F 30.18 in Calm   1 mph 76% 0 in 25.00 W/m2
15:18 45.2 °F 38.1 °F 30.18 in Calm   2 mph 76% 0 in 28.00 W/m2
15:24 44.6 °F 37.8 °F 30.17 in Calm   3 mph 77% 0 in 32.00 W/m2
15:28 44.6 °F 37.8 °F 30.17 in SSE 1 mph 3 mph 77% 0 in 35.00 W/m2
15:34 44.5 °F 38.1 °F 30.17 in SSE 1 mph 1 mph 78% 0 in 30.00 W/m2
15:38 44.5 °F 38.1 °F 30.16 in SSE 1 mph 1 mph 78% 0 in 26.00 W/m2
15:44 44.5 °F 38.1 °F 30.16 in Calm   1 mph 78% 0 in 32.00 W/m2
15:48 44.5 °F 38.1 °F 30.16 in Calm   1 mph 78% 0 in 28.00 W/m2
15:54 44.8 °F 38 °F 30.16 in Calm   2 mph 77% 0 in 14.00 W/m2
15:58 44.7 °F 37.9 °F 30.17 in SSE 1 mph 2 mph 77% 0 in 12.00 W/m2
16:04 44.9 °F 38.1 °F 30.17 in Calm   2 mph 77% 0 in 12.00 W/m2
16:08 45.2 °F 38.1 °F 30.17 in SSE 1 mph 2 mph 76% 0 in 12.00 W/m2
16:14 45.4 °F 38.3 °F 30.17 in SSE 1 mph 1 mph 76% 0 in 7.00 W/m2
16:18 45.4 °F 38.3 °F 30.18 in SSE 1 mph 1 mph 76% 0 in 0.00 W/m2
16:24 45.2 °F 38.1 °F 30.18 in Calm     76% 0 in 0.00 W/m2
16:28 44.9 °F 37.8 °F 30.18 in Calm     76% 0 in 0.00 W/m2
16:34 44.6 °F 37.8 °F 30.17 in Calm     77% 0 in 0.00 W/m2
16:38 44.8 °F 37.7 °F 30.17 in SSE 1 mph 3 mph 76% 0 in 0.00 W/m2
16:44 45.2 °F 37.7 °F 30.17 in SW 1 mph 2 mph 75% 0 in 0.00 W/m2
16:48 45.7 °F 37.9 °F 30.16 in SSE 2 mph 4 mph 74% 0 in 0.00 W/m2
16:54 46 °F 37.8 °F 30.17 in South 2 mph 3 mph 73% 0 in 0.00 W/m2
16:58 46 °F 37.8 °F 30.17 in South 2 mph 3 mph 73% 0 in 0.00 W/m2
17:04 45.9 °F 37.7 °F 30.16 in South 1 mph 1 mph 73% 0 in 0.00 W/m2
17:08 45.5 °F 37.3 °F 30.16 in Calm   1 mph 73% 0 in 0.00 W/m2
17:14 45.2 °F 37.4 °F 30.16 in Calm     74% 0 in 0.00 W/m2
17:18 44.9 °F 37.1 °F 30.16 in Calm     74% 0 in 0.00 W/m2
17:24 44.7 °F 36.9 °F 30.16 in Calm     74% 0 in 0.00 W/m2
17:28 44.3 °F 36.9 °F 30.16 in Calm   4 mph 75% 0 in 0.00 W/m2
17:34 45 °F 37.2 °F 30.16 in South 1 mph 2 mph 74% 0 in 0.00 W/m2
17:38 45.2 °F 37.1 °F 30.16 in South 1 mph 2 mph 73% 0 in 0.00 W/m2
17:44 45.1 °F 37 °F 30.16 in South 1 mph 1 mph 73% 0 in 0.00 W/m2
17:48 44.9 °F 36.8 °F 30.16 in Calm   1 mph 73% 0 in 0.00 W/m2
17:54 45.2 °F 37.1 °F 30.16 in South 1 mph 2 mph 73% 0 in 0.00 W/m2
17:58 45.7 °F 37.2 °F 30.16 in South 2 mph 5 mph 72% 0 in 0.00 W/m2
18:04 45.8 °F 37.3 °F 30.16 in South 2 mph 4 mph 72% 0 in 0.00 W/m2
18:08 45.9 °F 37.4 °F 30.16 in South 1 mph 4 mph 72% 0 in 0.00 W/m2
18:14 45.7 °F 37.2 °F 30.16 in South 1 mph 1 mph 72% 0 in 0.00 W/m2
18:18 45.3 °F 36.8 °F 30.15 in Calm   1 mph 72% 0 in 0.00 W/m2
18:24 45 °F 36.9 °F 30.15 in Calm   1 mph 73% 0 in 0.00 W/m2
18:28 44.7 °F 36.9 °F 30.15 in Calm   1 mph 74% 0 in 0.00 W/m2
18:34 44.4 °F 36.6 °F 30.15 in Calm     74% 0 in 0.00 W/m2
18:38 44.6 °F 36.8 °F 30.15 in Calm     74% 0 in 0.00 W/m2
18:44 44.5 °F 36.7 °F 30.15 in South 1 mph 1 mph 74% 0 in 0.00 W/m2
18:48 44.8 °F 37 °F 30.15 in South 1 mph 1 mph 74% 0 in 0.00 W/m2
18:54 45 °F 37.2 °F 30.15 in South 1 mph 1 mph 74% 0 in 0.00 W/m2
18:58 44.9 °F 37.1 °F 30.15 in Calm   1 mph 74% 0 in 0.00 W/m2
19:04 44.8 °F 37 °F 30.15 in Calm     74% 0 in 0.00 W/m2
19:08 44.7 °F 36.9 °F 30.15 in Calm     74% 0 in 0.00 W/m2
19:14 44.6 °F 37.2 °F 30.15 in Calm     75% 0 in 0.00 W/m2
19:18 44.5 °F 36.7 °F 30.16 in Calm     74% 0 in 0.00 W/m2
19:24 44.2 °F 36.8 °F 30.16 in Calm   1 mph 75% 0 in 0.00 W/m2
19:28 44.3 °F 37.2 °F 30.16 in Calm   1 mph 76% 0 in 0.00 W/m2
19:34 44.3 °F 37.2 °F 30.15 in Calm     76% 0 in 0.00 W/m2
19:38 44 °F 36.9 °F 30.15 in Calm     76% 0 in 0.00 W/m2
19:44 43.8 °F 37.1 °F 30.15 in Calm     77% 0 in 0.00 W/m2
19:48 43.6 °F 36.9 °F 30.15 in Calm     77% 0 in 0.00 W/m2
19:54 43.3 °F 36.9 °F 30.15 in Calm     78% 0 in 0.00 W/m2
19:58 42.9 °F 36.5 °F 30.15 in Calm     78% 0 in 0.00 W/m2
20:04 42.2 °F 36.2 °F 30.15 in Calm     79% 0 in 0.00 W/m2
Country Meadow, Clay, NY, USA
Compliments of Weather Underground - 2 mb